Time;durP1;ratioP1;P1;durP2;ratioP2;P2;SDS_P1;SDS_P2;PMS_P1;PMS_P2;Temp;Humidity;BMP_temperature;BMP_pressure;BME280_temperature;BME280_humidity;BME280_pressure;Samples;Min_cycle;Max_cycle;Signal;HPM_P1;HPM_P2
2021/10/10 00:00:04;;;;;;;22.13;12.70;;;6.90;99.90;;;;;;4960609;28;20201;-59
2021/10/10 00:02:30;;;;;;;35.93;12.60;;;6.80;99.90;;;;;;4964594;28;20230;-60
2021/10/10 00:04:56;;;;;;;24.73;11.97;;;6.80;99.90;;;;;;4980961;28;21213;-59
2021/10/10 00:07:21;;;;;;;23.23;12.00;;;6.80;99.90;;;;;;4981819;28;20185;-59
2021/10/10 00:09:47;;;;;;;23.87;13.13;;;6.70;99.90;;;;;;4969496;28;20174;-59
2021/10/10 00:12:12;;;;;;;22.07;12.33;;;6.70;99.90;;;;;;4966588;28;20186;-59
2021/10/10 00:14:41;;;;;;;24.30;11.50;;;6.60;99.90;;;;;;4967097;28;20205;-60
2021/10/10 00:17:07;;;;;;;20.70;11.23;;;6.60;99.90;;;;;;4968043;28;20183;-59
2021/10/10 00:19:33;;;;;;;21.63;12.17;;;6.50;99.90;;;;;;4984608;28;20449;-60
2021/10/10 00:21:58;;;;;;;21.53;11.60;;;6.50;99.90;;;;;;4984602;28;20186;-59
2021/10/10 00:24:24;;;;;;;23.53;12.90;;;6.50;99.90;;;;;;4964538;28;20208;-59
2021/10/10 00:26:50;;;;;;;21.93;10.90;;;6.40;99.90;;;;;;4966009;28;20185;-59
2021/10/10 00:29:16;;;;;;;18.43;11.90;;;6.40;99.90;;;;;;4968773;28;20537;-60
2021/10/10 00:31:42;;;;;;;17.63;11.27;;;6.30;99.90;;;;;;4967247;28;20174;-59
2021/10/10 00:34:08;;;;;;;24.17;11.77;;;6.30;99.90;;;;;;4968033;28;20472;-59
2021/10/10 00:36:34;;;;;;;21.70;12.00;;;6.20;99.90;;;;;;4967626;28;20189;-59
2021/10/10 00:39:00;;;;;;;18.30;11.40;;;6.20;99.90;;;;;;4967267;28;20276;-59
2021/10/10 00:41:26;;;;;;;17.87;10.70;;;6.20;99.90;;;;;;4983972;28;20529;-59
2021/10/10 00:43:51;;;;;;;21.13;12.07;;;6.20;99.90;;;;;;4983536;28;20496;-59
2021/10/10 00:46:17;;;;;;;21.30;11.07;;;6.20;99.90;;;;;;4967663;28;20235;-59
2021/10/10 00:48:43;;;;;;;21.10;11.70;;;6.10;99.90;;;;;;4967911;28;20201;-59
2021/10/10 00:51:09;;;;;;;21.00;11.70;;;6.10;99.90;;;;;;4965875;28;20177;-59
2021/10/10 00:53:37;;;;;;;25.57;11.57;;;6.10;99.90;;;;;;4967014;28;20202;-60
2021/10/10 00:56:03;;;;;;;23.47;11.40;;;6.00;99.90;;;;;;4969010;28;20174;-59
2021/10/10 00:58:30;;;;;;;21.70;12.37;;;6.00;99.90;;;;;;4966777;28;20459;-60
2021/10/10 01:00:56;;;;;;;21.80;11.23;;;5.90;99.90;;;;;;4977747;28;20448;-60
2021/10/10 01:03:23;;;;;;;20.67;12.20;;;5.90;99.90;;;;;;4967687;28;20433;-59
2021/10/10 01:05:49;;;;;;;22.97;12.27;;;5.80;99.90;;;;;;4967544;28;20449;-59
2021/10/10 01:08:16;;;;;;;23.80;12.37;;;5.80;99.90;;;;;;4968132;28;20433;-59
2021/10/10 01:10:45;;;;;;;25.03;12.10;;;5.80;99.90;;;;;;4967506;28;20437;-59
2021/10/10 01:13:13;;;;;;;25.70;12.30;;;5.70;99.90;;;;;;4965171;28;20537;-59
2021/10/10 01:15:39;;;;;;;23.37;12.30;;;5.70;99.90;;;;;;4967860;28;20433;-59
2021/10/10 01:18:04;;;;;;;20.57;11.83;;;5.60;99.90;;;;;;4965251;28;20434;-59
2021/10/10 01:20:47;;;;;;;22.97;11.40;;;5.60;99.90;;;;;;4966862;28;20181;-59
2021/10/10 01:23:13;;;;;;;24.20;12.70;;;5.60;99.90;;;;;;4967119;28;20557;-59
2021/10/10 01:25:39;;;;;;;23.40;12.00;;;5.50;99.90;;;;;;4964156;28;20516;-59
2021/10/10 01:28:05;;;;;;;21.10;11.60;;;5.50;99.90;;;;;;4966478;28;20517;-58
2021/10/10 01:30:31;;;;;;;20.77;12.87;;;5.50;99.90;;;;;;4966519;28;20429;-58
2021/10/10 01:32:57;;;;;;;18.67;11.80;;;5.40;99.90;;;;;;4967656;28;20487;-59
2021/10/10 01:35:26;;;;;;;21.63;12.33;;;5.40;99.90;;;;;;4963184;28;20449;-59
2021/10/10 01:37:52;;;;;;;17.83;11.03;;;5.30;99.90;;;;;;4968951;28;20178;-59
2021/10/10 01:40:18;;;;;;;17.60;11.23;;;5.30;99.90;;;;;;4981726;28;20430;-60
2021/10/10 01:42:44;;;;;;;31.40;10.97;;;5.20;99.90;;;;;;4968156;28;20950;-59
2021/10/10 01:45:17;;;;;;;20.37;10.50;;;5.20;99.90;;;;;;4965267;28;20190;-59
2021/10/10 01:47:43;;;;;;;20.37;10.80;;;5.10;99.90;;;;;;4968888;28;20193;-60
2021/10/10 01:50:09;;;;;;;21.17;12.17;;;5.10;99.90;;;;;;4971766;28;20689;-59
2021/10/10 01:52:37;;;;;;;19.63;10.40;;;5.10;99.90;;;;;;4985783;28;20428;-59
2021/10/10 01:55:03;;;;;;;16.67;9.60;;;5.00;99.90;;;;;;4971639;28;20441;-59
2021/10/10 01:57:29;;;;;;;16.83;10.17;;;5.00;99.90;;;;;;4969883;28;20429;-59
2021/10/10 01:59:55;;;;;;;15.70;10.10;;;5.00;99.90;;;;;;4971917;28;20461;-59
2021/10/10 02:02:20;;;;;;;14.73;9.37;;;5.00;99.90;;;;;;4970021;28;20224;-59
2021/10/10 02:04:46;;;;;;;20.03;9.87;;;4.90;99.90;;;;;;4985651;28;20717;-59
2021/10/10 02:07:12;;;;;;;18.20;9.73;;;4.90;99.90;;;;;;4969018;28;20174;-59
2021/10/10 02:09:41;;;;;;;17.60;9.70;;;4.90;99.90;;;;;;4969973;28;20229;-59
2021/10/10 02:12:06;;;;;;;15.27;9.50;;;4.90;99.90;;;;;;4971357;28;20213;-59
2021/10/10 02:14:34;;;;;;;19.50;9.73;;;4.90;99.90;;;;;;4969647;28;20515;-59
2021/10/10 02:16:59;;;;;;;19.00;9.40;;;4.90;99.90;;;;;;4970385;28;20182;-59
2021/10/10 02:19:25;;;;;;;20.70;10.00;;;4.90;99.90;;;;;;4970427;28;20461;-59
2021/10/10 02:21:51;;;;;;;17.73;10.10;;;4.90;99.90;;;;;;4971197;28;20181;-59
2021/10/10 02:24:16;;;;;;;17.53;9.73;;;4.90;99.90;;;;;;4970315;28;20329;-59
2021/10/10 02:26:42;;;;;;;16.90;10.60;;;4.90;99.90;;;;;;4966675;28;20173;-59
2021/10/10 02:29:09;;;;;;;19.23;10.87;;;4.90;99.90;;;;;;4969434;28;20200;-59
2021/10/10 02:31:35;;;;;;;20.23;10.23;;;4.90;99.90;;;;;;4967949;28;20429;-60
2021/10/10 02:34:00;;;;;;;22.93;9.73;;;4.90;99.90;;;;;;4966363;28;20568;-60
2021/10/10 02:36:26;;;;;;;20.33;9.67;;;4.90;99.90;;;;;;4969829;28;20677;-59
2021/10/10 02:38:51;;;;;;;20.53;9.43;;;4.90;99.90;;;;;;4966904;28;20832;-59
2021/10/10 02:41:17;;;;;;;15.50;9.50;;;4.90;99.90;;;;;;4969766;28;20174;-60
2021/10/10 02:43:43;;;;;;;17.17;9.13;;;4.90;99.90;;;;;;4967647;28;20197;-60
2021/10/10 02:46:08;;;;;;;16.97;9.90;;;4.90;99.90;;;;;;4968217;28;20180;-61
2021/10/10 02:48:34;;;;;;;14.03;9.43;;;4.90;99.90;;;;;;4969044;28;20178;-60
2021/10/10 02:51:00;;;;;;;17.07;10.40;;;4.90;99.90;;;;;;4968154;28;20201;-60
2021/10/10 02:53:25;;;;;;;16.80;9.60;;;4.80;99.90;;;;;;4968118;28;20503;-60
2021/10/10 02:55:51;;;;;;;13.43;9.80;;;4.80;99.90;;;;;;4967258;28;20186;-60
2021/10/10 02:58:16;;;;;;;20.23;9.37;;;4.80;99.90;;;;;;4968593;28;20205;-59
2021/10/10 03:00:44;;;;;;;24.43;9.23;;;4.80;99.90;;;;;;4969848;28;20181;-60
2021/10/10 03:03:09;;;;;;;21.37;9.80;;;4.80;99.90;;;;;;4967846;28;20173;-58
2021/10/10 03:05:35;;;;;;;23.73;9.50;;;4.80;99.90;;;;;;4967245;28;21050;-59
2021/10/10 03:08:01;;;;;;;15.60;8.77;;;4.80;99.90;;;;;;4982583;28;20189;-60
2021/10/10 03:10:26;;;;;;;16.93;8.77;;;4.70;99.90;;;;;;4966554;28;20186;-59
2021/10/10 03:12:52;;;;;;;15.50;8.80;;;4.70;99.90;;;;;;4969427;28;20237;-59
2021/10/10 03:15:18;;;;;;;17.67;9.43;;;4.70;99.90;;;;;;4968438;28;20205;-58
2021/10/10 03:17:43;;;;;;;20.20;9.30;;;4.70;99.90;;;;;;4969492;28;20182;-59
2021/10/10 03:20:09;;;;;;;13.67;8.83;;;4.60;99.90;;;;;;4967469;28;20201;-60
2021/10/10 03:22:35;;;;;;;17.87;8.87;;;4.60;99.90;;;;;;4968213;28;20272;-59
2021/10/10 03:25:00;;;;;;;14.93;9.13;;;4.60;99.90;;;;;;4968193;28;20526;-59
2021/10/10 03:27:26;;;;;;;12.87;8.93;;;4.60;99.90;;;;;;4966371;28;20185;-61
2021/10/10 03:29:54;;;;;;;18.50;9.60;;;4.50;99.90;;;;;;4968260;28;20193;-59
2021/10/10 03:32:20;;;;;;;20.57;9.40;;;4.50;99.90;;;;;;4967839;28;20651;-60
2021/10/10 03:34:46;;;;;;;19.70;10.33;;;4.50;99.90;;;;;;4967575;28;20505;-60
2021/10/10 03:37:12;;;;;;;19.40;9.30;;;4.50;99.90;;;;;;4966805;28;20825;-59
2021/10/10 03:39:37;;;;;;;17.27;9.00;;;4.50;99.90;;;;;;4968225;28;20205;-59
2021/10/10 03:42:03;;;;;;;17.40;8.73;;;4.40;99.90;;;;;;4981873;28;20181;-59
2021/10/10 03:44:29;;;;;;;15.03;8.60;;;4.40;99.90;;;;;;4981816;28;20701;-59
2021/10/10 03:46:54;;;;;;;16.90;9.10;;;4.40;99.90;;;;;;4966105;28;20257;-59
2021/10/10 03:49:20;;;;;;;14.07;9.70;;;4.30;99.90;;;;;;4968615;28;20186;-60
2021/10/10 03:51:45;;;;;;;22.40;10.17;;;4.30;99.90;;;;;;4967778;28;20207;-59
2021/10/10 03:56:49;;;;;;;23.03;10.47;;;4.30;99.90;;;;;;4967448;28;20221;-59
2021/10/10 03:59:15;;;;;;;16.17;9.43;;;4.30;99.90;;;;;;4968128;28;20464;-60
2021/10/10 04:01:42;;;;;;;15.93;8.77;;;4.30;99.90;;;;;;4966727;28;20441;-59
2021/10/10 04:04:07;;;;;;;19.40;8.87;;;4.30;99.90;;;;;;4964887;28;20214;-59
2021/10/10 04:06:34;;;;;;;14.93;8.90;;;4.30;99.90;;;;;;4965240;28;20436;-60
2021/10/10 04:08:59;;;;;;;15.27;8.80;;;4.30;99.90;;;;;;4966117;28;20217;-59
2021/10/10 04:11:25;;;;;;;26.27;8.90;;;4.30;99.90;;;;;;4981522;28;20996;-59
2021/10/10 04:13:51;;;;;;;17.93;9.03;;;4.20;99.90;;;;;;4966937;28;20198;-58
2021/10/10 04:16:16;;;;;;;16.03;8.67;;;4.30;99.90;;;;;;4966492;28;20220;-59
2021/10/10 04:18:42;;;;;;;16.17;8.73;;;4.30;99.90;;;;;;4966484;28;20210;-59
2021/10/10 04:21:08;;;;;;;16.00;8.50;;;4.30;99.90;;;;;;4966746;28;20186;-59
2021/10/10 04:23:34;;;;;;;16.73;9.17;;;4.30;99.90;;;;;;4966538;28;20697;-59
2021/10/10 04:26:00;;;;;;;22.90;9.73;;;4.30;99.90;;;;;;4966672;28;20433;-59
2021/10/10 04:28:27;;;;;;;14.30;9.20;;;4.30;99.90;;;;;;4966427;28;20682;-59
2021/10/10 04:30:53;;;;;;;20.50;10.00;;;4.20;99.90;;;;;;4966538;28;20456;-59
2021/10/10 04:33:18;;;;;;;17.03;9.87;;;4.20;99.90;;;;;;4981775;28;20433;-59
2021/10/10 04:35:44;;;;;;;16.40;9.23;;;4.20;99.90;;;;;;4965938;28;20181;-59
2021/10/10 04:38:10;;;;;;;17.37;9.57;;;4.10;99.90;;;;;;4981674;28;20185;-60
2021/10/10 04:40:36;;;;;;;15.63;10.40;;;4.10;99.90;;;;;;4964833;28;20186;-60
2021/10/10 04:43:09;;;;;;;14.77;8.73;;;4.00;99.90;;;;;;4982714;28;21622;-59
2021/10/10 04:45:35;;;;;;;14.77;9.60;;;4.00;99.90;;;;;;4964510;28;20814;-60
2021/10/10 04:48:01;;;;;;;19.17;10.30;;;3.90;99.90;;;;;;4965888;28;20468;-58
2021/10/10 04:50:27;;;;;;;16.37;9.30;;;3.90;99.90;;;;;;4966348;28;20433;-59
2021/10/10 04:52:53;;;;;;;15.83;8.90;;;3.90;99.90;;;;;;4966721;28;20959;-59
2021/10/10 04:55:18;;;;;;;18.00;9.07;;;3.80;99.90;;;;;;4966680;28;20280;-58
2021/10/10 04:57:44;;;;;;;19.23;9.57;;;3.90;99.90;;;;;;4965790;28;20201;-59
2021/10/10 05:00:10;;;;;;;21.73;8.97;;;3.80;99.90;;;;;;4965627;28;20209;-59
2021/10/10 05:02:36;;;;;;;23.73;10.10;;;3.80;99.90;;;;;;4966045;28;20178;-59
2021/10/10 05:05:02;;;;;;;19.20;9.97;;;3.70;99.90;;;;;;4966182;28;20461;-58
2021/10/10 05:07:29;;;;;;;20.77;10.40;;;3.70;99.90;;;;;;4980703;28;20201;-59
2021/10/10 05:09:55;;;;;;;16.23;9.70;;;3.70;99.90;;;;;;4967722;28;21061;-59
2021/10/10 05:12:20;;;;;;;21.40;9.43;;;3.70;99.90;;;;;;4966521;28;20947;-59
2021/10/10 05:14:46;;;;;;;19.80;9.30;;;3.70;99.90;;;;;;4966344;28;20217;-59
2021/10/10 05:17:11;;;;;;;16.10;9.07;;;3.70;99.90;;;;;;4967258;28;20198;-60
2021/10/10 05:19:37;;;;;;;16.60;9.30;;;3.70;99.90;;;;;;4965331;28;20301;-60
2021/10/10 05:22:03;;;;;;;18.40;9.80;;;3.70;99.90;;;;;;4983078;28;20182;-59
2021/10/10 05:24:29;;;;;;;14.20;8.70;;;3.60;99.90;;;;;;4966335;28;20212;-59
2021/10/10 05:26:55;;;;;;;17.83;9.30;;;3.60;99.90;;;;;;4970296;28;20316;-59
2021/10/10 05:29:20;;;;;;;18.63;9.33;;;3.60;99.90;;;;;;4969238;28;20456;-59
2021/10/10 05:31:46;;;;;;;17.53;9.50;;;3.50;99.90;;;;;;4968526;28;20240;-59
2021/10/10 05:34:12;;;;;;;26.37;10.73;;;3.50;99.90;;;;;;4969509;28;20456;-58
2021/10/10 05:36:37;;;;;;;21.90;10.00;;;3.50;99.90;;;;;;4984423;28;20464;-59
2021/10/10 05:39:03;;;;;;;22.97;9.93;;;3.50;99.90;;;;;;4970465;28;20259;-59
2021/10/10 05:41:29;;;;;;;17.87;10.37;;;3.40;99.90;;;;;;4969500;28;20182;-59
2021/10/10 05:43:54;;;;;;;17.50;9.90;;;3.40;99.90;;;;;;4970477;28;20463;-59
2021/10/10 05:46:20;;;;;;;16.30;9.43;;;3.40;99.90;;;;;;4984803;28;20682;-59
2021/10/10 05:48:46;;;;;;;20.07;10.00;;;3.40;99.90;;;;;;4985117;28;20483;-58
2021/10/10 05:51:11;;;;;;;14.63;8.90;;;3.30;99.90;;;;;;4969487;28;20268;-59
2021/10/10 05:53:38;;;;;;;18.53;9.87;;;3.30;99.90;;;;;;4968101;28;20344;-61
2021/10/10 05:56:04;;;;;;;17.73;9.40;;;3.20;99.90;;;;;;4984011;28;20680;-59
2021/10/10 05:58:33;;;;;;;18.93;10.73;;;3.20;99.90;;;;;;4969566;28;20608;-60
2021/10/10 06:00:59;;;;;;;15.40;9.33;;;3.20;99.90;;;;;;4968899;28;20209;-58
2021/10/10 06:05:55;;;;;;;13.90;9.17;;;3.10;99.90;;;;;;4943876;28;20683;-60
2021/10/10 06:08:21;;;;;;;16.57;11.03;;;3.10;99.90;;;;;;4946250;29;20441;-59
2021/10/10 06:10:46;;;;;;;16.47;9.87;;;3.10;99.90;;;;;;4947170;29;21648;-59
2021/10/10 06:13:12;;;;;;;20.80;9.50;;;3.10;99.90;;;;;;4950411;28;20213;-59
2021/10/10 06:15:40;;;;;;;18.37;8.37;;;3.10;99.90;;;;;;4949422;29;20214;-59
2021/10/10 06:18:08;;;;;;;15.70;9.67;;;3.10;99.90;;;;;;4960930;28;21117;-59
2021/10/10 06:20:35;;;;;;;20.90;10.43;;;3.10;99.90;;;;;;4947011;28;20442;-59
2021/10/10 06:23:01;;;;;;;16.50;9.80;;;3.10;99.90;;;;;;4961153;28;20430;-58
2021/10/10 06:25:26;;;;;;;13.63;8.77;;;3.10;99.90;;;;;;4948075;29;20452;-60
2021/10/10 06:27:52;;;;;;;16.10;9.07;;;3.10;99.90;;;;;;4947935;28;20173;-59
2021/10/10 06:30:17;;;;;;;24.40;9.40;;;3.10;99.90;;;;;;4944352;29;20187;-60
2021/10/10 06:32:43;;;;;;;21.33;9.33;;;3.10;99.90;;;;;;4947484;28;20653;-59
2021/10/10 06:35:09;;;;;;;24.03;9.97;;;3.10;99.90;;;;;;4945882;29;20202;-60
2021/10/10 06:37:35;;;;;;;14.00;9.33;;;3.20;99.90;;;;;;4946962;29;20187;-59
2021/10/10 06:40:00;;;;;;;18.33;10.80;;;3.20;99.90;;;;;;4945143;29;20206;-59
2021/10/10 06:42:27;;;;;;;22.63;10.37;;;3.30;99.90;;;;;;4945575;29;20433;-59
2021/10/10 06:44:52;;;;;;;17.00;9.20;;;3.40;99.90;;;;;;4946920;29;20624;-59
2021/10/10 06:47:18;;;;;;;15.87;10.40;;;3.50;99.90;;;;;;4946679;29;20435;-59
2021/10/10 06:49:44;;;;;;;16.00;9.37;;;3.60;99.90;;;;;;4947188;28;20185;-59
2021/10/10 06:52:09;;;;;;;19.40;9.53;;;3.60;99.90;;;;;;4958619;28;20233;-59
2021/10/10 06:54:35;;;;;;;19.50;10.00;;;3.70;99.90;;;;;;4960476;28;20293;-59
2021/10/10 06:57:01;;;;;;;19.07;10.27;;;3.80;99.90;;;;;;4939192;29;20226;-59
2021/10/10 06:59:26;;;;;;;18.03;10.47;;;3.90;99.90;;;;;;4939651;29;20462;-58
2021/10/10 07:01:52;;;;;;;18.00;10.10;;;3.90;99.90;;;;;;4945104;28;20178;-58
2021/10/10 07:04:18;;;;;;;18.67;9.87;;;4.00;99.90;;;;;;4938810;28;20217;-59
2021/10/10 07:06:44;;;;;;;23.30;11.27;;;4.10;99.90;;;;;;4941694;28;20188;-58
2021/10/10 07:09:11;;;;;;;17.10;10.20;;;4.20;99.90;;;;;;4939424;28;20186;-59
2021/10/10 07:11:38;;;;;;;13.33;8.30;;;4.20;99.90;;;;;;4945108;28;20480;-59
2021/10/10 07:14:04;;;;;;;18.27;9.73;;;4.40;99.90;;;;;;4945237;28;20461;-61
2021/10/10 07:16:30;;;;;;;18.03;9.77;;;4.50;99.90;;;;;;4945711;29;20442;-59
2021/10/10 07:18:57;;;;;;;19.73;10.13;;;4.60;99.90;;;;;;4945595;29;20466;-61
2021/10/10 07:26:21;;;;;;;17.87;10.40;;;4.90;99.90;;;;;;4939943;29;20801;-61
2021/10/10 07:28:47;;;;;;;19.40;10.80;;;5.00;99.90;;;;;;4944099;28;20452;-61
2021/10/10 07:31:13;;;;;;;21.90;11.70;;;5.00;99.90;;;;;;4953525;28;20444;-60
2021/10/10 07:33:40;;;;;;;20.97;12.27;;;5.20;99.90;;;;;;4946752;29;20834;-61
2021/10/10 07:36:06;;;;;;;24.63;11.47;;;5.30;99.90;;;;;;4945995;28;20189;-61
2021/10/10 07:38:32;;;;;;;33.23;13.23;;;5.30;99.90;;;;;;4941040;29;20462;-62
2021/10/10 07:40:59;;;;;;;29.07;13.00;;;5.40;99.90;;;;;;4943484;28;20430;-61
2021/10/10 07:43:26;;;;;;;22.90;14.13;;;5.60;99.90;;;;;;4941959;28;21193;-61
2021/10/10 07:45:52;;;;;;;26.40;13.87;;;5.70;99.90;;;;;;4944924;28;20461;-63
2021/10/10 07:48:18;;;;;;;22.30;13.40;;;5.80;99.90;;;;;;4943745;29;20434;-60
2021/10/10 07:50:46;;;;;;;25.77;13.73;;;5.90;99.90;;;;;;4940035;28;20496;-61
2021/10/10 07:53:12;;;;;;;30.77;14.20;;;6.00;99.90;;;;;;4954718;28;20182;-61
2021/10/10 07:55:38;;;;;;;23.40;13.50;;;6.10;99.90;;;;;;4963480;28;20446;-62
2021/10/10 07:58:03;;;;;;;28.57;14.80;;;6.20;99.90;;;;;;4947238;29;20444;-61
2021/10/10 08:00:30;;;;;;;26.60;13.40;;;6.30;99.90;;;;;;4944439;29;20299;-61
2021/10/10 08:03:00;;;;;;;27.57;12.53;;;6.40;99.90;;;;;;4963021;28;20183;-61
2021/10/10 08:05:28;;;;;;;25.43;14.07;;;6.50;99.90;;;;;;4932568;29;20463;-61
2021/10/10 08:07:54;;;;;;;25.80;14.50;;;6.60;99.90;;;;;;4943234;29;20435;-62
2021/10/10 08:10:21;;;;;;;31.23;14.70;;;6.70;99.90;;;;;;4944355;29;20430;-61
2021/10/10 08:12:47;;;;;;;40.60;15.20;;;6.80;99.90;;;;;;4942827;28;20470;-62
2021/10/10 08:15:14;;;;;;;31.47;15.43;;;6.90;99.90;;;;;;4941530;29;20458;-62
2021/10/10 08:17:40;;;;;;;25.37;14.00;;;7.00;99.90;;;;;;4942891;28;20497;-60
2021/10/10 08:20:07;;;;;;;30.20;15.40;;;7.10;99.90;;;;;;4947886;28;20981;-57
2021/10/10 08:22:35;;;;;;;27.43;14.03;;;7.20;99.90;;;;;;4943007;29;20171;-57
2021/10/10 08:25:06;;;;;;;29.00;14.47;;;7.30;99.70;;;;;;4936240;28;22088;-57
2021/10/10 08:27:33;;;;;;;26.60;14.63;;;7.40;99.00;;;;;;4932174;28;20425;-57
2021/10/10 08:29:59;;;;;;;24.53;14.10;;;7.50;98.00;;;;;;4933687;29;20521;-60
2021/10/10 08:32:24;;;;;;;25.43;12.00;;;7.60;98.10;;;;;;4940932;28;20988;-64
2021/10/10 08:34:50;;;;;;;27.13;13.80;;;7.70;97.00;;;;;;4940266;28;20210;-62
2021/10/10 08:37:16;;;;;;;25.43;13.67;;;7.80;96.30;;;;;;4929572;28;20194;-62
2021/10/10 08:39:41;;;;;;;25.23;14.40;;;7.90;95.30;;;;;;4933108;28;20221;-59
2021/10/10 08:42:10;;;;;;;20.93;12.83;;;8.00;94.70;;;;;;4949353;28;20172;-59
2021/10/10 08:44:40;;;;;;;21.23;12.47;;;8.10;94.10;;;;;;4932489;28;20293;-59
2021/10/10 08:47:07;;;;;;;22.70;12.50;;;8.20;93.00;;;;;;4934574;29;20427;-60
2021/10/10 08:49:35;;;;;;;22.93;12.27;;;8.30;93.20;;;;;;4932720;28;20446;-61
2021/10/10 08:52:04;;;;;;;20.77;12.77;;;8.40;92.20;;;;;;4931135;29;20448;-60
2021/10/10 08:54:30;;;;;;;25.60;13.20;;;8.60;91.00;;;;;;4932399;29;20654;-60
2021/10/10 08:56:57;;;;;;;22.40;12.47;;;8.70;90.90;;;;;;4930334;28;21129;-64
2021/10/10 08:59:25;;;;;;;28.53;11.60;;;8.80;89.20;;;;;;4934841;28;20201;-62
2021/10/10 09:01:53;;;;;;;24.97;12.70;;;8.90;89.70;;;;;;4937597;29;20801;-62
2021/10/10 09:04:19;;;;;;;23.97;11.13;;;9.00;86.70;;;;;;4935987;28;21360;-59
2021/10/10 09:06:45;;;;;;;19.77;10.97;;;9.10;84.60;;;;;;4934926;28;20422;-61
2021/10/10 09:09:31;;;;;;;19.60;11.90;;;9.20;83.60;;;;;;4934604;29;20521;-60
2021/10/10 09:12:07;;;;;;;23.47;11.70;;;9.30;85.00;;;;;;4936336;28;20194;-60
2021/10/10 09:14:50;;;;;;;20.30;11.13;;;9.50;84.50;;;;;;4941880;29;20477;-60
2021/10/10 09:17:19;;;;;;;17.00;10.47;;;9.60;82.90;;;;;;4937022;29;20443;-60
2021/10/10 09:19:50;;;;;;;20.57;9.70;;;9.70;79.10;;;;;;4932495;28;20454;-61
2021/10/10 09:22:16;;;;;;;18.33;9.80;;;9.80;77.30;;;;;;4933839;29;20485;-59
2021/10/10 09:24:42;;;;;;;16.10;10.00;;;10.00;74.30;;;;;;4929463;29;20481;-58
2021/10/10 09:27:12;;;;;;;26.13;9.00;;;10.10;73.60;;;;;;4933525;28;20553;-58
2021/10/10 09:29:44;;;;;;;46.13;10.70;;;10.30;71.90;;;;;;4934729;29;20395;-59
2021/10/10 09:32:13;;;;;;;22.03;9.20;;;10.40;71.60;;;;;;4936677;28;20589;-59
2021/10/10 09:34:40;;;;;;;22.87;11.27;;;10.70;71.70;;;;;;4931088;29;20445;-58
2021/10/10 09:37:18;;;;;;;21.60;10.27;;;10.80;69.70;;;;;;4931401;28;20453;-58
2021/10/10 09:39:47;;;;;;;16.40;8.60;;;11.00;69.50;;;;;;4930760;28;20465;-59
2021/10/10 09:42:45;;;;;;;19.03;9.53;;;11.10;67.50;;;;;;4926718;28;20447;-58
2021/10/10 09:45:14;;;;;;;13.70;8.30;;;11.30;65.70;;;;;;4924104;28;20447;-61
2021/10/10 09:47:51;;;;;;;14.87;8.17;;;11.40;64.70;;;;;;4937075;29;20477;-61
2021/10/10 09:50:17;;;;;;;17.60;8.50;;;11.60;63.00;;;;;;4935406;28;20449;-60
2021/10/10 09:52:42;;;;;;;15.93;8.60;;;11.60;60.90;;;;;;4934848;28;20791;-60
2021/10/10 09:55:11;;;;;;;19.40;9.27;;;11.70;60.60;;;;;;4935370;28;20199;-62
2021/10/10 09:57:48;;;;;;;14.60;9.13;;;11.80;59.80;;;;;;4932923;29;20269;-62
2021/10/10 10:00:46;;;;;;;13.80;7.70;;;11.90;59.40;;;;;;4929721;28;20552;-61
2021/10/10 10:03:11;;;;;;;12.17;7.57;;;12.10;59.00;;;;;;4929239;28;20470;-60
2021/10/10 10:05:38;;;;;;;19.53;9.20;;;12.20;59.20;;;;;;4950304;28;20477;-60
2021/10/10 10:08:05;;;;;;;12.33;7.50;;;12.40;58.00;;;;;;4937024;28;20182;-61
2021/10/10 10:10:32;;;;;;;11.60;7.50;;;12.50;57.10;;;;;;4941785;29;20438;-61
2021/10/10 10:13:01;;;;;;;10.57;7.27;;;12.60;54.60;;;;;;4943911;29;20515;-60
2021/10/10 10:15:32;;;;;;;17.47;6.80;;;12.60;54.80;;;;;;4940010;29;20451;-61
2021/10/10 10:17:58;;;;;;;14.97;6.40;;;12.80;55.90;;;;;;4943892;29;20457;-61
2021/10/10 10:20:26;;;;;;;14.40;7.37;;;12.90;54.90;;;;;;4939953;28;20456;-59
2021/10/10 10:22:54;;;;;;;16.17;7.07;;;13.00;54.20;;;;;;4944784;28;21160;-58
2021/10/10 10:25:21;;;;;;;12.57;7.20;;;13.10;53.50;;;;;;4945956;28;20458;-61
2021/10/10 10:27:49;;;;;;;14.80;7.80;;;13.20;52.40;;;;;;4946097;29;20441;-60
2021/10/10 10:30:16;;;;;;;10.40;5.93;;;13.30;52.20;;;;;;4948307;28;20426;-62
2021/10/10 10:32:42;;;;;;;11.43;6.60;;;13.40;51.70;;;;;;4940591;29;20450;-61
2021/10/10 10:35:10;;;;;;;12.10;5.80;;;13.50;50.70;;;;;;4940691;28;20466;-61
2021/10/10 10:37:42;;;;;;;11.30;6.60;;;13.60;50.10;;;;;;4944390;28;20183;-61
2021/10/10 10:40:14;;;;;;;13.30;6.60;;;13.70;49.70;;;;;;4941070;29;20516;-62
2021/10/10 10:42:41;;;;;;;12.23;7.33;;;13.90;50.20;;;;;;4943255;29;20426;-62
2021/10/10 10:45:29;;;;;;;9.30;6.00;;;14.00;50.60;;;;;;4942196;28;20545;-60
2021/10/10 10:48:00;;;;;;;10.70;5.80;;;14.20;49.50;;;;;;4944774;29;20435;-60
2021/10/10 10:50:27;;;;;;;12.53;6.23;;;14.30;49.20;;;;;;4940282;29;20434;-61
2021/10/10 10:53:04;;;;;;;13.43;7.10;;;14.50;49.00;;;;;;4946809;29;20434;-61
2021/10/10 10:55:40;;;;;;;11.67;5.30;;;14.60;47.90;;;;;;4942298;29;20488;-61
2021/10/10 10:58:05;;;;;;;7.90;5.43;;;14.80;47.00;;;;;;4940927;28;20425;-62
2021/10/10 11:00:36;;;;;;;9.77;5.50;;;15.00;45.50;;;;;;4937394;28;20465;-60
2021/10/10 11:03:20;;;;;;;8.47;5.57;;;15.30;44.40;;;;;;4944589;29;20210;-61
2021/10/10 11:05:54;;;;;;;9.10;4.87;;;15.70;43.80;;;;;;4942780;28;20813;-62
2021/10/10 11:08:25;;;;;;;6.47;4.90;;;16.10;42.10;;;;;;4942950;28;20476;-59
2021/10/10 11:11:00;;;;;;;14.10;5.27;;;16.60;40.60;;;;;;4942701;29;20486;-61
2021/10/10 11:13:34;;;;;;;9.03;5.10;;;17.10;38.80;;;;;;4939231;28;20493;-62
2021/10/10 11:16:11;;;;;;;9.77;5.10;;;17.50;37.00;;;;;;4940668;28;20433;-60
2021/10/10 11:18:46;;;;;;;6.70;4.50;;;18.00;36.70;;;;;;4935929;28;20453;-60
2021/10/10 11:21:14;;;;;;;5.97;4.67;;;18.50;36.30;;;;;;4940387;28;21017;-61
2021/10/10 11:23:40;;;;;;;8.30;5.63;;;18.90;35.00;;;;;;4945815;28;20485;-60
2021/10/10 11:26:12;;;;;;;7.00;4.00;;;19.30;34.10;;;;;;4938940;28;20502;-61
2021/10/10 11:28:40;;;;;;;6.53;4.70;;;19.60;34.00;;;;;;4946213;29;20446;-65
2021/10/10 11:31:11;;;;;;;9.60;4.97;;;20.10;33.40;;;;;;4941790;29;20434;-61
2021/10/10 11:33:39;;;;;;;5.80;4.20;;;20.50;32.80;;;;;;4942840;29;20670;-60
2021/10/10 11:36:05;;;;;;;6.87;5.50;;;20.80;31.90;;;;;;4944209;29;20485;-61
2021/10/10 11:38:53;;;;;;;11.80;4.90;;;21.20;32.60;;;;;;4940122;28;20434;-61
2021/10/10 11:41:20;;;;;;;12.17;4.50;;;21.60;31.90;;;;;;4941574;28;20502;-61
2021/10/10 11:44:00;;;;;;;6.87;5.13;;;22.00;31.30;;;;;;4933097;28;20504;-62
2021/10/10 11:46:36;;;;;;;7.27;4.67;;;22.50;30.50;;;;;;4937384;29;20866;-61
2021/10/10 11:49:02;;;;;;;8.50;5.07;;;22.80;30.40;;;;;;4942805;28;20429;-62
2021/10/10 11:51:37;;;;;;;6.63;4.80;;;23.00;30.00;;;;;;4943025;28;20181;-63
2021/10/10 11:54:05;;;;;;;8.70;4.90;;;23.10;30.10;;;;;;4935019;28;20205;-62
2021/10/10 11:56:31;;;;;;;6.60;4.60;;;23.30;30.00;;;;;;4940941;29;20179;-60
2021/10/10 11:59:13;;;;;;;10.50;5.20;;;23.30;30.30;;;;;;4942273;28;20275;-62
2021/10/10 12:01:38;;;;;;;11.23;4.73;;;23.40;29.60;;;;;;4936385;28;20202;-64
2021/10/10 12:04:05;;;;;;;5.70;4.93;;;23.40;29.30;;;;;;4937514;29;20247;-63
2021/10/10 12:06:31;;;;;;;8.17;4.70;;;23.50;29.60;;;;;;4936811;29;20574;-63
2021/10/10 12:09:12;;;;;;;7.20;4.73;;;23.50;29.40;;;;;;4938017;28;20273;-60
2021/10/10 12:11:39;;;;;;;5.23;4.20;;;23.30;29.00;;;;;;4935494;29;20177;-63
2021/10/10 12:14:06;;;;;;;9.70;4.90;;;23.10;30.80;;;;;;4942968;28;20206;-60
2021/10/10 12:16:47;;;;;;;5.40;4.17;;;22.90;30.80;;;;;;4939474;29;20178;-60
2021/10/10 12:19:13;;;;;;;10.27;5.13;;;22.70;31.00;;;;;;4938007;29;20465;-60
2021/10/10 12:21:39;;;;;;;46.13;6.13;;;22.60;31.10;;;;;;4942219;29;20433;-60
2021/10/10 12:24:17;;;;;;;7.77;4.87;;;22.50;31.10;;;;;;4939554;29;20814;-62
2021/10/10 12:26:51;;;;;;;8.33;5.23;;;22.30;30.00;;;;;;4941783;28;20162;-62
2021/10/10 12:29:22;;;;;;;8.20;5.23;;;22.00;30.20;;;;;;4936674;28;20459;-61
2021/10/10 12:31:47;;;;;;;10.27;5.50;;;21.80;31.50;;;;;;4937531;28;20446;-62
2021/10/10 12:34:13;;;;;;;7.20;4.90;;;21.70;32.70;;;;;;4939768;28;20540;-63
2021/10/10 12:36:44;;;;;;;16.37;5.13;;;21.60;32.10;;;;;;4936685;28;20620;-61
2021/10/10 12:39:10;;;;;;;7.37;4.83;;;21.50;30.80;;;;;;4940135;28;20202;-60
2021/10/10 12:41:36;;;;;;;10.30;4.87;;;21.40;31.60;;;;;;4932708;28;20852;-61
2021/10/10 12:44:03;;;;;;;13.40;5.43;;;21.30;32.60;;;;;;4940978;29;20454;-60
2021/10/10 12:46:46;;;;;;;7.90;5.07;;;21.30;33.00;;;;;;4941498;28;20175;-61
2021/10/10 12:49:11;;;;;;;9.37;5.23;;;21.30;31.90;;;;;;4940687;28;20477;-62
2021/10/10 12:51:48;;;;;;;7.63;4.50;;;21.20;32.20;;;;;;4935184;29;20449;-60